createdAt,value
2017-11-05T08:38:37.831Z,15.13
2017-11-05T08:41:06.843Z,19.10
2017-11-05T08:43:35.115Z,17.03
2017-11-05T08:46:03.428Z,19.77
2017-11-05T08:48:32.122Z,19.90
2017-11-05T08:51:00.350Z,19.13
2017-11-05T08:53:29.374Z,20.80
2017-11-05T08:55:58.084Z,19.60
2017-11-05T08:58:26.316Z,20.57
2017-11-05T09:00:54.536Z,21.30
2017-11-05T09:03:22.824Z,20.70
2017-11-05T09:05:51.063Z,19.07
2017-11-05T09:08:19.364Z,19.93
2017-11-05T09:10:47.637Z,13.17
2017-11-05T09:13:15.885Z,16.83
2017-11-05T09:15:44.190Z,19.53
2017-11-05T09:18:12.432Z,12.80
2017-11-05T09:20:40.744Z,18.83
2017-11-05T09:23:09.047Z,19.17
2017-11-05T09:25:37.304Z,12.37
2017-11-05T09:28:05.655Z,17.73
2017-11-05T09:30:33.919Z,17.50
2017-11-05T09:33:02.188Z,15.77
2017-11-05T09:35:30.991Z,15.73
2017-11-05T09:37:59.275Z,13.67
2017-11-05T09:40:27.534Z,17.47
2017-11-05T09:42:55.836Z,18.03
2017-11-05T09:45:24.705Z,18.50
2017-11-05T09:47:52.962Z,15.40
2017-11-05T09:50:21.256Z,15.97
2017-11-05T09:52:49.497Z,16.97
2017-11-05T09:55:18.111Z,17.70
2017-11-05T09:57:46.535Z,15.07
2017-11-05T10:00:14.782Z,14.00
2017-11-05T10:02:43.135Z,19.47
2017-11-05T10:05:11.422Z,18.60
2017-11-05T10:07:39.667Z,22.73
2017-11-05T10:10:08.727Z,24.80
2017-11-05T10:12:37.015Z,16.47
2017-11-05T10:15:06.029Z,16.43
2017-11-05T10:17:35.032Z,12.07
2017-11-05T10:20:03.355Z,16.33
2017-11-05T10:22:31.608Z,11.30
2017-11-05T10:24:59.833Z,15.00
2017-11-05T10:27:28.879Z,13.00
2017-11-05T10:29:57.118Z,15.37
2017-11-05T10:32:25.374Z,15.50
2017-11-05T10:34:53.696Z,16.47
2017-11-05T10:37:21.987Z,16.80
2017-11-05T10:39:50.279Z,16.03
2017-11-05T10:42:18.603Z,14.87
2017-11-05T10:44:46.876Z,14.43
2017-11-05T10:47:15.903Z,16.37
2017-11-05T10:49:44.222Z,18.50
2017-11-05T10:52:12.468Z,16.33
2017-11-05T10:54:40.724Z,15.50
2017-11-05T10:57:09.060Z,16.57
2017-11-05T10:59:38.058Z,15.60
2017-11-05T11:02:06.318Z,13.73
2017-11-05T11:04:35.394Z,15.27
2017-11-05T11:07:03.701Z,13.87
2017-11-05T11:09:32.782Z,16.77
2017-11-05T11:12:01.062Z,16.13
2017-11-05T11:14:30.096Z,13.83
2017-11-05T11:16:58.399Z,12.90
2017-11-05T11:19:26.705Z,12.93
2017-11-05T11:21:54.975Z,15.37
2017-11-05T11:24:24.030Z,14.03
2017-11-05T11:26:52.336Z,13.50
2017-11-05T11:29:20.568Z,11.90
2017-11-05T11:31:48.815Z,11.23
2017-11-05T11:34:17.891Z,13.30
2017-11-05T11:36:46.193Z,16.57
2017-11-05T11:39:14.478Z,12.67
2017-11-05T11:41:42.751Z,11.20
2017-11-05T11:44:11.745Z,13.27
2017-11-05T11:46:39.990Z,12.80
2017-11-05T11:49:08.280Z,15.23
2017-11-05T11:51:36.525Z,16.40
2017-11-05T11:54:04.778Z,14.50
2017-11-05T11:56:33.074Z,15.43
2017-11-05T11:59:01.352Z,18.67
2017-11-05T12:01:29.623Z,13.60
2017-11-05T12:03:57.916Z,16.20
2017-11-05T12:06:26.179Z,12.77
2017-11-05T12:08:54.452Z,12.40
2017-11-05T12:11:22.727Z,14.50
2017-11-05T12:13:50.985Z,16.23
2017-11-05T12:16:19.247Z,12.87
2017-11-05T12:18:47.574Z,13.53
2017-11-05T12:21:15.860Z,15.50
2017-11-05T12:23:44.880Z,15.83
2017-11-05T12:26:13.162Z,16.23
2017-11-05T12:28:41.467Z,16.00
2017-11-05T12:31:09.719Z,12.53
2017-11-05T12:33:37.954Z,13.13
2017-11-05T12:36:07.030Z,15.87
2017-11-05T12:38:36.115Z,11.70
2017-11-05T12:41:04.414Z,15.00
2017-11-05T12:43:32.776Z,14.23
2017-11-05T12:46:01.018Z,14.60
2017-11-05T12:48:29.290Z,12.47
2017-11-05T12:50:57.577Z,14.80
2017-11-05T12:53:25.833Z,13.37
2017-11-05T12:55:54.128Z,12.30
2017-11-05T12:58:22.446Z,12.90
2017-11-05T13:00:51.452Z,13.73
2017-11-05T13:03:20.544Z,13.27
2017-11-05T13:05:49.694Z,15.00
2017-11-05T13:08:18.018Z,15.40
2017-11-05T13:10:46.333Z,12.67
2017-11-05T13:13:14.659Z,12.83
2017-11-05T13:15:42.971Z,14.70
2017-11-05T13:18:11.274Z,15.33
2017-11-05T13:20:39.614Z,15.77
2017-11-05T13:23:07.889Z,14.70
2017-11-05T13:25:36.166Z,12.33
2017-11-05T13:28:04.517Z,13.30
2017-11-05T13:30:33.587Z,13.80
2017-11-05T13:33:01.847Z,14.40
2017-11-05T13:35:30.140Z,14.80
2017-11-05T13:37:58.447Z,14.20
2017-11-05T13:40:27.458Z,11.60
2017-11-05T13:42:55.820Z,12.30
2017-11-05T13:45:24.846Z,12.37
2017-11-05T13:47:53.131Z,13.97
2017-11-05T13:50:21.513Z,13.60
2017-11-05T13:52:49.817Z,14.00
2017-11-05T13:55:18.053Z,13.17
2017-11-05T13:57:46.374Z,11.67
2017-11-05T14:00:15.408Z,11.90
2017-11-05T14:02:44.487Z,13.37
2017-11-05T14:05:13.480Z,11.80
2017-11-05T14:07:41.741Z,12.67
2017-11-05T14:10:10.787Z,12.27
2017-11-05T14:12:39.068Z,11.53
2017-11-05T14:15:07.393Z,11.80
2017-11-05T14:17:35.644Z,11.40
2017-11-05T14:20:03.918Z,11.87
2017-11-05T14:22:32.286Z,13.10
2017-11-05T14:25:00.553Z,13.77
2017-11-05T14:27:28.805Z,13.50
2017-11-05T14:29:57.112Z,12.97
2017-11-05T14:32:25.423Z,11.70
2017-11-05T14:34:53.686Z,13.67
2017-11-05T14:37:21.965Z,13.37
2017-11-05T14:39:50.194Z,14.20
2017-11-05T14:42:18.501Z,14.77
2017-11-05T14:44:46.741Z,16.60
2017-11-05T14:47:15.004Z,14.77
2017-11-05T14:49:43.300Z,11.20
2017-11-05T14:52:13.663Z,12.20
2017-11-05T14:54:41.924Z,13.60
2017-11-05T14:57:10.244Z,12.63
2017-11-05T14:59:39.264Z,15.73
2017-11-05T15:02:07.513Z,15.20
2017-11-05T15:04:35.848Z,13.07
2017-11-05T15:07:04.144Z,12.73
2017-11-05T15:09:32.401Z,15.03
2017-11-05T15:12:02.373Z,15.20
2017-11-05T15:14:30.606Z,15.00
2017-11-05T15:17:00.964Z,15.20
2017-11-05T15:19:29.218Z,16.70
2017-11-05T15:21:58.518Z,12.80
2017-11-05T15:24:27.594Z,17.13
2017-11-05T15:26:55.856Z,16.77
2017-11-05T15:29:24.136Z,17.77
2017-11-05T15:31:52.411Z,18.00
2017-11-05T15:34:21.438Z,16.20
2017-11-05T15:36:51.434Z,19.37
2017-11-05T15:39:19.662Z,15.23
2017-11-05T15:41:48.718Z,20.87
2017-11-05T15:44:18.174Z,22.07
2017-11-05T15:46:46.453Z,21.43
2017-11-05T15:49:14.748Z,14.77
2017-11-05T15:51:43.023Z,22.73
2017-11-05T15:54:11.309Z,21.17
2017-11-05T15:56:39.658Z,12.70
2017-11-05T15:59:07.930Z,13.23
2017-11-05T16:01:36.709Z,14.13
2017-11-05T16:04:08.035Z,19.53
2017-11-05T16:06:36.366Z,18.87
2017-11-05T16:09:04.639Z,13.43
2017-11-05T16:11:33.516Z,15.60
2017-11-05T16:14:01.754Z,13.37
2017-11-05T16:16:30.055Z,21.17
2017-11-05T16:18:58.338Z,12.93
2017-11-05T16:21:26.596Z,18.00
2017-11-05T16:23:54.845Z,21.60
2017-11-05T16:26:23.880Z,13.67
2017-11-05T16:28:52.130Z,20.77
2017-11-05T16:31:20.367Z,25.77
2017-11-05T16:33:48.661Z,20.17
2017-11-05T16:36:16.942Z,24.30
2017-11-05T16:38:45.963Z,19.90
2017-11-05T16:41:14.302Z,28.10
2017-11-05T16:43:43.325Z,24.03
2017-11-05T16:46:11.629Z,20.47
2017-11-05T16:48:39.931Z,20.90
2017-11-05T16:51:08.237Z,22.03
2017-11-05T16:53:37.254Z,25.57
2017-11-05T16:56:05.544Z,21.97
2017-11-05T16:58:33.797Z,18.13
2017-11-05T17:01:02.057Z,21.43
2017-11-05T17:03:31.784Z,19.57
2017-11-05T17:06:00.317Z,24.50
2017-11-05T17:08:28.545Z,25.07
2017-11-05T17:10:56.834Z,20.10
2017-11-05T17:13:25.119Z,20.03
2017-11-05T17:15:53.373Z,20.37
2017-11-05T17:18:21.667Z,15.97
2017-11-05T17:20:49.948Z,16.83
2017-11-05T17:23:18.199Z,19.30
2017-11-05T17:25:46.542Z,16.83
2017-11-05T17:28:14.848Z,14.50
2017-11-05T17:30:43.141Z,27.10
2017-11-05T17:33:11.817Z,15.80
2017-11-05T17:35:40.115Z,16.20
2017-11-05T17:38:08.441Z,21.47
2017-11-05T17:40:37.484Z,21.00
2017-11-05T17:43:05.742Z,18.50
2017-11-05T17:45:33.959Z,25.00
2017-11-05T17:48:02.244Z,17.00
2017-11-05T17:50:30.572Z,16.60
2017-11-05T17:52:58.837Z,21.90
2017-11-05T17:55:29.991Z,26.07
2017-11-05T17:57:58.241Z,16.10
2017-11-05T18:00:29.746Z,15.40
2017-11-05T18:03:01.736Z,25.90
2017-11-05T18:05:30.060Z,18.03
2017-11-05T18:08:09.086Z,19.47
2017-11-05T18:13:20.526Z,18.47
2017-11-05T18:15:48.831Z,35.90
2017-11-05T18:18:18.396Z,30.57
2017-11-05T18:20:47.747Z,28.87
2017-11-05T18:23:22.114Z,28.23
2017-11-05T18:25:51.003Z,28.30
2017-11-05T18:28:23.119Z,21.80
2017-11-05T18:30:52.300Z,21.80
2017-11-05T18:33:20.729Z,25.40
2017-11-05T18:35:49.003Z,21.00
2017-11-05T18:38:17.379Z,23.17
2017-11-05T18:40:45.694Z,30.00
2017-11-05T18:43:14.808Z,33.77
2017-11-05T18:45:43.125Z,33.17
2017-11-05T18:48:12.332Z,34.93
2017-11-05T18:50:40.589Z,33.33
2017-11-05T18:53:09.588Z,38.37
2017-11-05T18:55:37.891Z,21.77
2017-11-05T18:58:06.154Z,20.50
2017-11-05T19:00:34.408Z,34.60
2017-11-05T19:03:02.711Z,20.37
2017-11-05T19:05:30.946Z,20.80
2017-11-05T19:07:59.237Z,38.43
2017-11-05T19:10:34.754Z,52.77
2017-11-05T19:13:03.764Z,48.47
2017-11-05T19:15:32.021Z,51.40
2017-11-05T19:18:01.314Z,30.73
2017-11-05T19:20:30.374Z,47.53
2017-11-05T19:22:59.437Z,23.47
2017-11-05T19:25:27.726Z,32.43
2017-11-05T19:27:55.967Z,26.70
2017-11-05T19:30:25.806Z,49.60
2017-11-05T19:32:54.061Z,55.00
2017-11-05T19:35:23.291Z,54.33
2017-11-05T19:37:51.530Z,51.03
2017-11-05T19:40:19.874Z,51.87
2017-11-05T19:42:48.113Z,99.60
2017-11-05T19:45:16.362Z,93.43
2017-11-05T19:47:44.684Z,36.53
2017-11-05T19:50:13.016Z,58.47
2017-11-05T19:52:41.255Z,48.30
2017-11-05T19:55:09.585Z,52.67
2017-11-05T19:57:37.829Z,47.07
2017-11-05T20:00:06.823Z,55.63
2017-11-05T20:02:35.877Z,56.67
2017-11-05T20:05:04.111Z,52.30
2017-11-05T20:07:32.352Z,44.60
2017-11-05T20:10:01.432Z,54.50
2017-11-05T20:12:29.691Z,59.83
2017-11-05T20:14:59.301Z,61.33
2017-11-05T20:17:29.652Z,75.30
2017-11-05T20:19:57.918Z,67.20
2017-11-05T20:22:26.645Z,71.97
2017-11-05T20:24:55.126Z,33.30
2017-11-05T20:27:23.395Z,37.83
2017-11-05T20:29:52.235Z,29.67
2017-11-05T20:32:20.550Z,34.07
2017-11-05T20:34:49.552Z,57.73
2017-11-05T20:37:19.183Z,30.47
2017-11-05T20:39:47.485Z,29.53
2017-11-05T20:42:15.789Z,43.33
2017-11-05T20:44:44.812Z,34.73
2017-11-05T20:47:13.124Z,35.70
2017-11-05T20:49:41.506Z,50.50
2017-11-05T20:52:10.817Z,38.20
2017-11-05T20:54:39.221Z,42.33
2017-11-05T20:57:07.975Z,34.70
2017-11-05T20:59:36.237Z,39.00
2017-11-05T21:02:04.545Z,34.33
2017-11-05T21:04:33.221Z,32.90
2017-11-05T21:07:02.393Z,55.20
2017-11-05T21:09:30.643Z,50.57
2017-11-05T21:11:59.432Z,52.43
2017-11-05T21:14:29.330Z,35.00
2017-11-05T21:16:59.378Z,49.90
2017-11-05T21:19:27.641Z,39.07
2017-11-05T21:21:56.737Z,52.97
2017-11-05T21:24:25.072Z,63.37
2017-11-05T21:26:55.445Z,42.50
2017-11-05T21:29:24.675Z,35.67
2017-11-05T21:31:52.939Z,47.73
2017-11-05T21:34:21.205Z,54.90
2017-11-05T21:36:49.533Z,35.57
2017-11-05T21:39:17.831Z,37.57
2017-11-05T21:41:46.109Z,37.60
2017-11-05T21:44:15.485Z,35.33
2017-11-05T21:46:43.758Z,34.20
2017-11-05T21:49:12.057Z,49.43
2017-11-05T21:51:43.089Z,51.50
2017-11-05T21:54:12.272Z,42.77
2017-11-05T21:56:41.359Z,37.50
2017-11-05T21:59:09.631Z,36.33
2017-11-05T22:01:37.923Z,36.00
2017-11-05T22:04:07.057Z,38.50
2017-11-05T22:06:35.465Z,40.33
2017-11-05T22:09:04.151Z,41.00
2017-11-05T22:11:32.388Z,42.37
2017-11-05T22:14:00.641Z,36.57
2017-11-05T22:16:29.722Z,39.37
2017-11-05T22:18:58.363Z,42.07
2017-11-05T22:21:26.682Z,36.93
2017-11-05T22:23:55.913Z,33.90
2017-11-05T22:26:24.156Z,34.80
2017-11-05T22:28:53.435Z,27.03
2017-11-05T22:31:22.596Z,28.50
2017-11-05T22:33:52.260Z,28.73
2017-11-05T22:36:20.641Z,26.27
2017-11-05T22:38:50.214Z,29.10
2017-11-05T22:41:18.489Z,28.50
2017-11-05T22:43:46.767Z,27.43
2017-11-05T22:46:15.201Z,26.70
2017-11-05T22:48:43.494Z,25.07
2017-11-05T22:51:11.941Z,25.43
2017-11-05T22:53:41.017Z,28.10
2017-11-05T22:56:09.372Z,32.00
2017-11-05T22:58:37.670Z,27.20
2017-11-05T23:01:05.919Z,27.30
2017-11-05T23:03:34.142Z,27.53
2017-11-05T23:06:03.209Z,31.90
2017-11-05T23:08:31.512Z,32.80
2017-11-05T23:11:00.542Z,36.93
2017-11-05T23:13:28.839Z,27.43
2017-11-05T23:15:57.123Z,36.60
2017-11-05T23:18:25.396Z,39.13
2017-11-05T23:20:54.559Z,34.00
2017-11-05T23:23:22.876Z,28.20
2017-11-05T23:25:51.150Z,28.67
2017-11-05T23:28:19.484Z,32.20
2017-11-05T23:30:47.769Z,34.40
2017-11-05T23:33:16.080Z,26.83
2017-11-05T23:35:44.776Z,27.80
2017-11-05T23:38:13.024Z,24.83
2017-11-05T23:40:41.300Z,25.47
2017-11-05T23:43:09.631Z,39.30
2017-11-05T23:45:37.866Z,33.60
2017-11-05T23:48:06.156Z,28.57
2017-11-05T23:50:34.436Z,24.00
2017-11-05T23:53:02.683Z,35.63
2017-11-05T23:55:31.337Z,29.40
2017-11-05T23:57:59.573Z,32.27
